createdAt,value
2022-09-16T00:01:15.041Z,15.10
2022-09-16T00:06:28.351Z,15.00
2022-09-16T00:09:03.532Z,15.00
2022-09-16T00:11:34.575Z,15.00
2022-09-16T00:14:03.542Z,15.00
2022-09-16T00:19:01.047Z,15.00
2022-09-16T00:21:29.947Z,14.90
2022-09-16T00:23:58.260Z,15.00
2022-09-16T00:36:20.552Z,15.00
2022-09-16T00:38:57.545Z,15.00
2022-09-16T00:41:33.337Z,15.00
2022-09-16T00:44:04.939Z,15.00
2022-09-16T00:46:38.293Z,14.90
2022-09-16T00:49:31.370Z,14.90
2022-09-16T00:52:06.014Z,14.80
2022-09-16T00:54:38.005Z,14.80
2022-09-16T00:57:08.334Z,14.70
2022-09-16T00:59:44.299Z,14.80
2022-09-16T01:02:16.872Z,14.80
2022-09-16T01:05:07.246Z,14.70
2022-09-16T01:07:55.377Z,14.70
2022-09-16T01:10:26.342Z,14.60
2022-09-16T01:13:14.910Z,14.70
2022-09-16T01:16:19.012Z,14.60
2022-09-16T01:22:14.840Z,14.60
2022-09-16T01:24:52.276Z,14.60
2022-09-16T01:27:54.203Z,14.60
2022-09-16T01:31:25.683Z,14.60
2022-09-16T01:34:28.407Z,14.90
2022-09-16T01:37:08.862Z,14.60
2022-09-16T01:40:12.109Z,14.50
2022-09-16T01:43:19.904Z,14.50
2022-09-16T01:46:19.695Z,14.40
2022-09-16T01:48:58.887Z,14.40
2022-09-16T01:51:41.982Z,14.50
2022-09-16T01:54:40.117Z,14.50
2022-09-16T01:57:18.394Z,14.30
2022-09-16T02:00:04.061Z,14.40
2022-09-16T02:03:00.217Z,14.40
2022-09-16T02:05:39.893Z,14.50
2022-09-16T02:08:13.625Z,14.50
2022-09-16T02:10:48.028Z,14.50
2022-09-16T02:13:37.793Z,14.40
2022-09-16T02:16:11.710Z,14.40
2022-09-16T02:18:42.443Z,14.30
2022-09-16T02:21:14.705Z,15.40
2022-09-16T02:23:51.987Z,14.20
2022-09-16T02:26:26.525Z,14.30
2022-09-16T02:28:56.247Z,14.30
2022-09-16T02:31:34.117Z,14.30
2022-09-16T02:34:11.650Z,14.40
2022-09-16T02:36:41.790Z,14.40
2022-09-16T02:39:16.304Z,14.40
2022-09-16T02:41:44.356Z,14.40
2022-09-16T02:44:12.774Z,14.50
2022-09-16T02:47:13.977Z,16.50
2022-09-16T02:50:09.201Z,14.40
2022-09-16T02:53:01.797Z,14.40
2022-09-16T02:56:06.694Z,14.40
2022-09-16T03:06:27.026Z,14.40
2022-09-16T03:08:59.719Z,14.50
2022-09-16T03:11:45.632Z,14.40
2022-09-16T03:17:27.980Z,14.40
2022-09-16T03:20:30.154Z,14.50
2022-09-16T03:23:39.141Z,14.40
2022-09-16T03:29:23.237Z,14.50
2022-09-16T03:32:08.492Z,14.50
2022-09-16T03:37:11.066Z,14.50
2022-09-16T03:40:01.568Z,14.40
2022-09-16T03:42:33.038Z,14.40
2022-09-16T03:45:18.914Z,14.40
2022-09-16T03:47:59.165Z,14.40
2022-09-16T03:50:47.622Z,14.50
2022-09-16T03:53:28.078Z,14.50
2022-09-16T03:55:56.298Z,14.50
2022-09-16T03:58:24.423Z,14.50
2022-09-16T04:06:06.491Z,14.50
2022-09-16T04:08:56.074Z,14.50
2022-09-16T04:11:45.535Z,14.40
2022-09-16T04:14:29.823Z,14.30
2022-09-16T04:17:19.738Z,14.30
2022-09-16T04:19:59.898Z,14.20
2022-09-16T04:22:44.783Z,14.20
2022-09-16T04:25:32.076Z,14.20
2022-09-16T04:28:22.513Z,14.20
2022-09-16T04:31:28.797Z,14.20
2022-09-16T04:34:15.195Z,14.20
2022-09-16T04:36:49.658Z,14.20
2022-09-16T04:39:17.859Z,14.20
2022-09-16T04:41:46.116Z,14.20
2022-09-16T04:49:13.050Z,14.00
2022-09-16T04:51:41.065Z,14.10
2022-09-16T04:54:09.577Z,14.00
2022-09-16T05:01:39.017Z,14.00
2022-09-16T05:04:10.002Z,14.00
2022-09-16T05:06:41.833Z,14.10
2022-09-16T05:09:12.385Z,14.10
2022-09-16T05:11:41.733Z,14.10
2022-09-16T05:14:18.268Z,14.10
2022-09-16T05:24:16.718Z,14.00
2022-09-16T05:29:16.538Z,13.90
2022-09-16T05:31:48.687Z,14.00
2022-09-16T05:34:28.875Z,14.00
2022-09-16T05:41:58.204Z,14.00
2022-09-16T05:44:27.495Z,14.00
2022-09-16T05:46:56.062Z,14.00
2022-09-16T05:51:53.132Z,14.00
2022-09-16T06:06:47.128Z,14.00
2022-09-16T06:11:51.974Z,14.10
2022-09-16T06:16:50.938Z,14.10
2022-09-16T06:21:48.764Z,14.20
2022-09-16T06:24:18.334Z,14.20
2022-09-16T06:26:47.913Z,14.30
2022-09-16T06:29:17.670Z,14.30
2022-09-16T06:34:18.644Z,14.40
2022-09-16T06:39:17.412Z,14.40
2022-09-16T06:51:41.520Z,14.70
2022-09-16T06:59:08.712Z,14.80
2022-09-16T07:04:13.798Z,14.80
2022-09-16T07:11:59.511Z,15.10
2022-09-16T07:14:28.877Z,15.00
2022-09-16T07:19:26.320Z,15.10
2022-09-16T07:36:48.412Z,15.30
2022-09-16T07:39:18.994Z,15.20
2022-09-16T07:44:20.828Z,15.30
2022-09-16T07:46:51.323Z,15.30
2022-09-16T07:54:20.194Z,15.40
2022-09-16T07:59:19.447Z,15.50
2022-09-16T08:01:49.832Z,15.70
2022-09-16T08:04:19.803Z,15.70
2022-09-16T08:12:06.028Z,15.70
2022-09-16T08:14:34.579Z,15.80
2022-09-16T08:42:05.702Z,16.00
2022-09-16T08:47:35.117Z,16.10
2022-09-16T08:50:16.245Z,16.20
2022-09-16T08:52:45.876Z,16.30
2022-09-16T08:55:37.973Z,16.40
2022-09-16T08:58:31.673Z,16.70
2022-09-16T09:01:06.827Z,17.00
2022-09-16T09:03:41.973Z,17.00
2022-09-16T09:06:55.508Z,17.00
2022-09-16T09:12:37.516Z,17.50
2022-09-16T09:15:30.572Z,17.20
2022-09-16T09:21:04.519Z,17.00
2022-09-16T09:23:52.537Z,17.10
2022-09-16T09:29:20.061Z,17.30
2022-09-16T09:32:04.199Z,17.40
2022-09-16T09:35:03.762Z,17.30
2022-09-16T09:38:12.594Z,18.20
2022-09-16T09:40:54.791Z,17.20
2022-09-16T09:43:33.798Z,17.20
2022-09-16T09:46:28.044Z,17.40
2022-09-16T09:49:18.353Z,17.00
2022-09-16T09:51:53.720Z,17.40
2022-09-16T09:54:32.503Z,17.40
2022-09-16T09:57:42.118Z,17.60
2022-09-16T10:00:18.473Z,17.70
2022-09-16T10:02:49.927Z,17.90
2022-09-16T10:05:29.335Z,18.20
2022-09-16T10:08:22.947Z,18.30
2022-09-16T10:10:55.152Z,18.30
2022-09-16T10:13:25.724Z,18.20
2022-09-16T10:16:16.408Z,18.30
2022-09-16T10:18:44.880Z,18.50
2022-09-16T10:21:16.939Z,18.80
2022-09-16T10:23:57.427Z,18.70
2022-09-16T10:26:29.185Z,19.00
2022-09-16T10:29:04.049Z,18.80
2022-09-16T10:31:41.995Z,18.70
2022-09-16T10:34:38.677Z,18.70
2022-09-16T10:37:15.177Z,18.80
2022-09-16T10:39:58.662Z,19.20
2022-09-16T10:42:29.560Z,19.50
2022-09-16T10:45:16.127Z,19.60
2022-09-16T10:47:51.489Z,19.80
2022-09-16T10:50:20.583Z,19.70
2022-09-16T10:52:49.976Z,19.40
2022-09-16T10:55:26.721Z,19.20
2022-09-16T10:58:08.534Z,19.20
2022-09-16T11:00:58.227Z,19.10
2022-09-16T11:04:02.354Z,19.20
2022-09-16T11:06:55.770Z,19.20
2022-09-16T11:09:51.265Z,19.40
2022-09-16T11:12:44.437Z,19.80
2022-09-16T11:15:57.500Z,19.40
2022-09-16T11:19:12.868Z,19.30
2022-09-16T11:21:56.948Z,19.40
2022-09-16T11:24:51.015Z,19.80
2022-09-16T11:27:28.949Z,20.00
2022-09-16T11:33:32.848Z,20.40
2022-09-16T11:36:32.300Z,20.00
2022-09-16T11:41:41.149Z,20.30
2022-09-16T11:44:56.862Z,20.40
2022-09-16T11:47:59.660Z,20.30
2022-09-16T11:53:17.293Z,19.60
2022-09-16T11:58:54.694Z,18.80
2022-09-16T12:06:29.124Z,19.10
2022-09-16T12:11:36.900Z,19.40
2022-09-16T12:14:24.642Z,19.40
2022-09-16T12:17:06.105Z,19.40
2022-09-16T12:19:55.689Z,19.30
2022-09-16T12:22:42.641Z,19.50
2022-09-16T12:25:28.449Z,19.40
2022-09-16T12:28:31.613Z,19.60
2022-09-16T12:31:31.377Z,19.40
2022-09-16T12:35:02.574Z,19.30
2022-09-16T12:37:53.291Z,19.30
2022-09-16T12:43:32.175Z,20.00
2022-09-16T12:48:45.376Z,19.80
2022-09-16T12:54:03.083Z,19.70
2022-09-16T12:57:15.444Z,19.90
2022-09-16T13:00:08.618Z,20.10
2022-09-16T13:02:44.345Z,19.90
2022-09-16T13:05:25.557Z,19.60
2022-09-16T13:08:04.372Z,19.60
2022-09-16T13:13:32.561Z,19.60
2022-09-16T13:16:04.576Z,19.50
2022-09-16T13:18:44.658Z,19.60
2022-09-16T13:21:28.758Z,19.40
2022-09-16T13:24:21.816Z,19.50
2022-09-16T13:29:45.827Z,19.60
2022-09-16T13:33:05.406Z,19.50
2022-09-16T13:35:38.455Z,19.50
2022-09-16T13:38:24.257Z,19.20
2022-09-16T13:41:01.175Z,19.20
2022-09-16T13:43:29.887Z,20.60
2022-09-16T13:46:11.410Z,19.00
2022-09-16T13:48:57.068Z,18.90
2022-09-16T13:53:54.049Z,18.50
2022-09-16T13:59:29.727Z,18.40
2022-09-16T14:02:03.458Z,18.00
2022-09-16T14:08:05.365Z,17.80
2022-09-16T14:10:57.608Z,17.70
2022-09-16T14:13:42.784Z,17.50
2022-09-16T14:16:24.329Z,17.50
2022-09-16T14:19:06.250Z,18.00
2022-09-16T14:24:19.338Z,17.30
2022-09-16T14:26:55.794Z,17.00
2022-09-16T14:29:27.240Z,17.00
2022-09-16T14:31:57.098Z,16.90
2022-09-16T14:34:34.913Z,16.90
2022-09-16T14:39:33.122Z,16.60
2022-09-16T14:42:07.379Z,16.40
2022-09-16T14:44:40.111Z,16.20
2022-09-16T14:47:29.351Z,16.20
2022-09-16T14:50:22.929Z,16.30
2022-09-16T14:52:58.389Z,16.40
2022-09-16T14:55:36.381Z,16.60
2022-09-16T15:01:07.592Z,16.50
2022-09-16T15:03:48.962Z,16.30
2022-09-16T15:06:23.048Z,16.20
2022-09-16T15:09:12.999Z,16.20
2022-09-16T15:11:53.806Z,16.30
2022-09-16T15:16:57.390Z,16.40
2022-09-16T15:19:50.574Z,16.40
2022-09-16T15:24:52.934Z,16.20
2022-09-16T15:27:29.672Z,16.10
2022-09-16T15:30:01.203Z,15.80
2022-09-16T15:32:31.834Z,15.70
2022-09-16T15:35:12.515Z,15.70
2022-09-16T15:40:26.968Z,15.60
2022-09-16T15:43:28.005Z,15.60
2022-09-16T15:46:09.296Z,15.50
2022-09-16T15:48:45.806Z,15.40
2022-09-16T15:51:33.476Z,15.50
2022-09-16T15:54:22.208Z,15.50
2022-09-16T15:57:05.853Z,15.60
2022-09-16T16:00:10.586Z,15.70
2022-09-16T16:02:49.473Z,16.10
2022-09-16T16:05:30.190Z,16.40
2022-09-16T16:08:06.282Z,16.40
2022-09-16T16:15:39.539Z,16.60
2022-09-16T16:18:10.800Z,16.40
2022-09-16T16:23:12.335Z,16.10
2022-09-16T16:25:40.642Z,16.00
2022-09-16T16:30:36.702Z,15.90
2022-09-16T16:33:07.923Z,15.70
2022-09-16T16:40:32.397Z,15.20
2022-09-16T16:45:28.491Z,15.10
2022-09-16T16:47:59.033Z,15.10
2022-09-16T16:50:37.313Z,15.00
2022-09-16T16:53:06.687Z,14.90
2022-09-16T16:55:37.535Z,14.90
2022-09-16T16:58:07.507Z,14.80
2022-09-16T17:00:35.902Z,14.70
2022-09-16T17:10:29.064Z,14.40
2022-09-16T17:12:56.986Z,14.40
2022-09-16T17:15:26.097Z,14.20
2022-09-16T17:25:18.862Z,14.10
2022-09-16T17:35:13.470Z,13.80
2022-09-16T17:37:42.384Z,13.80
2022-09-16T17:40:11.149Z,13.80
2022-09-16T18:00:01.603Z,13.60
2022-09-16T18:14:50.509Z,13.40
2022-09-16T18:17:18.854Z,13.40
2022-09-16T18:22:14.863Z,13.10
2022-09-16T18:32:09.091Z,13.10
2022-09-16T18:54:29.262Z,12.90
2022-09-16T18:57:00.298Z,13.00
2022-09-16T18:59:31.543Z,12.90
2022-09-16T19:02:03.945Z,12.80
2022-09-16T19:04:38.439Z,12.90
2022-09-16T19:07:08.558Z,12.60
2022-09-16T19:09:39.960Z,12.90
2022-09-16T19:12:13.394Z,12.80
2022-09-16T19:14:41.902Z,12.80
2022-09-16T19:24:35.238Z,12.70
2022-09-16T19:49:23.033Z,12.40
2022-09-16T19:51:53.352Z,11.40
2022-09-16T20:11:49.250Z,12.30
2022-09-16T20:14:20.389Z,12.20
2022-09-16T20:16:51.957Z,12.20
2022-09-16T20:21:49.176Z,12.20
2022-09-16T20:24:20.362Z,12.20
2022-09-16T20:26:50.712Z,12.10
2022-09-16T20:29:20.100Z,12.20
2022-09-16T20:31:50.765Z,12.00
2022-09-16T20:44:15.894Z,12.10
2022-09-16T20:49:16.618Z,12.00
2022-09-16T20:51:45.118Z,12.00
2022-09-16T20:54:15.246Z,11.90
2022-09-16T20:56:47.243Z,11.90
2022-09-16T20:59:17.635Z,12.00
2022-09-16T21:01:46.565Z,12.00
2022-09-16T21:04:19.744Z,11.90
2022-09-16T21:09:16.559Z,11.80
2022-09-16T21:14:16.455Z,11.70
2022-09-16T21:16:46.133Z,11.70
2022-09-16T21:19:14.826Z,11.70
2022-09-16T21:21:46.557Z,12.30
2022-09-16T21:29:15.998Z,11.60
2022-09-16T21:34:20.679Z,11.50
2022-09-16T21:36:50.223Z,11.50
2022-09-16T21:39:21.255Z,11.50
2022-09-16T21:41:49.642Z,11.50
2022-09-16T21:44:19.171Z,11.40
2022-09-16T21:49:23.062Z,11.30
2022-09-16T21:51:57.352Z,11.30
2022-09-16T21:54:26.825Z,11.40
2022-09-16T22:01:52.117Z,11.40
2022-09-16T22:04:23.665Z,11.30
2022-09-16T22:06:54.853Z,11.30
2022-09-16T22:19:18.443Z,11.30
2022-09-16T22:21:50.073Z,11.30
2022-09-16T22:24:22.230Z,11.30
2022-09-16T22:26:51.569Z,11.30
2022-09-16T22:39:16.266Z,11.30
2022-09-16T22:44:14.158Z,11.30
2022-09-16T22:46:47.556Z,11.30
2022-09-16T22:49:16.591Z,11.30
2022-09-16T22:54:14.348Z,11.20
2022-09-16T22:56:43.955Z,11.20
2022-09-16T22:59:20.653Z,11.20
2022-09-16T23:09:15.543Z,11.10
2022-09-16T23:14:15.649Z,11.10
2022-09-16T23:24:15.420Z,11.20
2022-09-16T23:29:14.444Z,11.20
2022-09-16T23:31:44.863Z,11.20
2022-09-16T23:34:20.051Z,11.20
2022-09-16T23:44:15.885Z,11.20
